createdAt,value
2019-05-28T00:00:11.761Z,72.61
2019-05-28T00:02:41.372Z,72.55
2019-05-28T00:05:10.896Z,72.32
2019-05-28T00:07:40.405Z,72.36
2019-05-28T00:10:10.643Z,72.62
2019-05-28T00:12:40.123Z,72.27
2019-05-28T00:15:09.767Z,72.26
2019-05-28T00:17:39.497Z,71.99
2019-05-28T00:20:09.431Z,72.20
2019-05-28T00:22:38.862Z,72.05
2019-05-28T00:25:08.928Z,72.00
2019-05-28T00:27:38.359Z,71.75
2019-05-28T00:30:19.734Z,71.71
2019-05-28T00:32:40.863Z,71.87
2019-05-28T00:35:10.696Z,72.26
2019-05-28T00:37:40.157Z,72.33
2019-05-28T00:40:11.019Z,72.52
2019-05-28T00:42:40.461Z,72.22
2019-05-28T00:45:10.918Z,72.12
2019-05-28T00:47:40.355Z,72.10
2019-05-28T00:50:10.728Z,72.28
2019-05-28T00:52:40.228Z,72.05
2019-05-28T00:55:10.218Z,72.16
2019-05-28T00:57:43.324Z,72.10
2019-05-28T01:00:13.575Z,72.62
2019-05-28T01:02:43.010Z,72.89
2019-05-28T01:05:12.795Z,73.18
2019-05-28T01:07:42.225Z,73.17
2019-05-28T01:10:12.144Z,73.44
2019-05-28T01:12:41.634Z,73.55
2019-05-28T01:15:11.512Z,73.25
2019-05-28T01:17:40.963Z,73.41
2019-05-28T01:20:11.026Z,73.57
2019-05-28T01:22:40.462Z,73.55
2019-05-28T01:25:10.107Z,73.67
2019-05-28T01:27:39.562Z,73.14
2019-05-28T01:30:09.718Z,73.29
2019-05-28T01:32:39.162Z,73.50
2019-05-28T01:35:08.745Z,73.43
2019-05-28T01:37:38.190Z,72.97
2019-05-28T01:40:08.072Z,72.93
2019-05-28T01:42:37.511Z,72.58
2019-05-28T01:45:09.007Z,72.88
2019-05-28T01:47:38.707Z,72.73
2019-05-28T01:50:11.556Z,72.90
2019-05-28T01:52:40.991Z,73.14
2019-05-28T01:55:10.898Z,72.88
2019-05-28T01:57:40.338Z,72.47
2019-05-28T02:00:10.817Z,72.46
2019-05-28T02:02:40.264Z,72.28
2019-05-28T02:05:10.627Z,72.60
2019-05-28T02:07:40.070Z,72.60
2019-05-28T02:10:10.030Z,72.53
2019-05-28T02:12:39.486Z,72.64
2019-05-28T02:15:10.327Z,72.61
2019-05-28T02:17:39.780Z,72.72
2019-05-28T02:20:11.322Z,72.86
2019-05-28T02:22:40.904Z,72.97
2019-05-28T02:25:11.173Z,72.82
2019-05-28T02:27:40.608Z,72.70
2019-05-28T02:30:12.580Z,72.58
2019-05-28T02:32:42.007Z,72.43
2019-05-28T02:35:11.956Z,72.66
2019-05-28T02:37:41.403Z,72.39
2019-05-28T02:40:11.482Z,72.35
2019-05-28T02:42:40.916Z,72.38
2019-05-28T02:45:11.578Z,72.09
2019-05-28T02:47:41.095Z,72.28
2019-05-28T02:50:13.031Z,72.22
2019-05-28T02:52:43.718Z,72.10
2019-05-28T02:55:14.070Z,72.14
2019-05-28T02:57:44.863Z,72.03
2019-05-28T03:00:17.482Z,72.04
2019-05-28T03:02:49.319Z,72.20
2019-05-28T03:05:19.456Z,72.18
2019-05-28T03:07:50.511Z,72.19
2019-05-28T03:11:01.389Z,72.25
2019-05-28T03:13:08.976Z,72.20
2019-05-28T03:15:41.685Z,72.19
2019-05-28T03:18:13.181Z,72.36
2019-05-28T03:20:43.558Z,72.51
2019-05-28T03:23:13.951Z,72.40
2019-05-28T03:25:43.473Z,72.76
2019-05-28T03:28:13.003Z,72.85
2019-05-28T03:30:42.438Z,72.77
2019-05-28T03:33:11.921Z,73.92
2019-05-28T03:35:44.047Z,73.89
2019-05-28T03:38:14.440Z,73.86
2019-05-28T03:40:47.674Z,73.51
2019-05-28T03:43:17.174Z,73.17
2019-05-28T03:45:46.902Z,73.25
2019-05-28T03:48:16.343Z,73.11
2019-05-28T03:50:45.831Z,73.13
2019-05-28T03:53:15.294Z,72.93
2019-05-28T03:55:44.734Z,72.83
2019-05-28T03:58:14.234Z,72.62
2019-05-28T04:00:43.699Z,72.78
2019-05-28T04:03:13.130Z,72.68
2019-05-28T04:05:42.604Z,72.61
2019-05-28T04:08:12.303Z,72.48
2019-05-28T04:10:41.846Z,72.68
2019-05-28T04:13:11.287Z,72.75
2019-05-28T04:15:40.747Z,72.69
2019-05-28T04:18:10.259Z,72.66
2019-05-28T04:20:39.701Z,72.74
2019-05-28T04:23:18.249Z,72.59
2019-05-28T04:25:47.857Z,72.46
2019-05-28T04:28:17.295Z,72.79
2019-05-28T04:30:46.755Z,72.71
2019-05-28T04:33:16.192Z,72.51
2019-05-28T04:35:45.645Z,72.30
2019-05-28T04:38:15.084Z,71.98
2019-05-28T04:40:44.519Z,71.85
2019-05-28T04:43:13.984Z,71.92
2019-05-28T04:45:43.436Z,71.72
2019-05-28T04:48:12.877Z,71.65
2019-05-28T04:50:42.335Z,71.93
2019-05-28T04:53:11.780Z,71.79
2019-05-28T04:55:41.237Z,71.20
2019-05-28T04:58:10.728Z,71.47
2019-05-28T05:00:40.269Z,71.78
2019-05-28T05:03:09.771Z,71.15
2019-05-28T05:05:39.444Z,70.51
2019-05-28T05:08:08.897Z,71.13
2019-05-28T05:10:38.334Z,71.82
2019-05-28T05:13:07.804Z,71.42
2019-05-28T05:15:37.259Z,70.95
2019-05-28T05:18:06.708Z,70.28
2019-05-28T05:20:36.198Z,69.46
2019-05-28T05:23:05.652Z,68.92
2019-05-28T05:25:35.103Z,67.82
2019-05-28T05:28:04.622Z,68.27
2019-05-28T05:30:34.064Z,67.78
2019-05-28T05:33:19.111Z,67.21
2019-05-28T05:35:34.675Z,66.36
2019-05-28T05:38:04.260Z,66.03
2019-05-28T05:40:33.700Z,66.34
2019-05-28T05:43:03.150Z,66.05
2019-05-28T05:45:32.618Z,64.92
2019-05-28T05:48:02.035Z,64.21
2019-05-28T05:50:31.509Z,64.25
2019-05-28T05:53:00.945Z,64.95
2019-05-28T05:55:30.384Z,64.02
2019-05-28T05:57:59.836Z,63.29
2019-05-28T06:00:29.293Z,63.00
2019-05-28T06:02:58.750Z,63.28
2019-05-28T06:05:28.260Z,63.10
2019-05-28T06:07:57.767Z,62.70
2019-05-28T06:10:27.551Z,62.56
2019-05-28T06:12:57.003Z,62.55
2019-05-28T06:15:26.454Z,62.19
2019-05-28T06:17:55.900Z,61.63
2019-05-28T06:20:25.357Z,62.17
2019-05-28T06:22:54.812Z,61.79
2019-05-28T06:25:24.344Z,61.52
2019-05-28T06:27:54.028Z,60.89
2019-05-28T06:30:23.608Z,59.70
2019-05-28T06:32:53.058Z,59.47
2019-05-28T06:35:22.565Z,58.62
2019-05-28T06:37:51.995Z,57.86
2019-05-28T06:40:21.690Z,57.25
2019-05-28T06:42:51.137Z,56.37
2019-05-28T06:45:20.715Z,55.64
2019-05-28T06:47:50.177Z,55.56
2019-05-28T06:50:21.026Z,56.28
2019-05-28T06:52:50.463Z,56.76
2019-05-28T06:55:19.984Z,57.47
2019-05-28T06:57:49.427Z,57.14
2019-05-28T07:00:19.215Z,57.63
2019-05-28T07:02:48.671Z,54.91
2019-05-28T07:05:18.549Z,54.69
2019-05-28T07:07:48.005Z,54.15
2019-05-28T07:10:17.622Z,54.11
2019-05-28T07:12:47.056Z,54.11
2019-05-28T07:15:17.134Z,52.74
2019-05-28T07:17:46.552Z,53.10
2019-05-28T07:20:16.339Z,53.47
2019-05-28T07:22:45.783Z,52.67
2019-05-28T07:25:15.377Z,52.42
2019-05-28T07:27:44.817Z,52.30
2019-05-28T07:30:14.667Z,52.11
2019-05-28T07:32:44.125Z,51.44
2019-05-28T07:35:14.766Z,51.35
2019-05-28T07:37:44.205Z,51.68
2019-05-28T07:40:30.495Z,51.26
2019-05-28T07:42:45.328Z,50.28
2019-05-28T07:45:14.937Z,50.88
2019-05-28T07:47:44.381Z,51.43
2019-05-28T07:50:14.260Z,51.52
2019-05-28T07:52:43.703Z,50.57
2019-05-28T07:55:13.250Z,50.48
2019-05-28T07:57:42.677Z,50.54
2019-05-28T08:00:12.598Z,52.43
2019-05-28T08:02:42.107Z,51.83
2019-05-28T08:05:16.885Z,50.77
2019-05-28T08:07:42.888Z,50.35
2019-05-28T08:10:12.766Z,51.00
2019-05-28T08:12:42.222Z,50.03
2019-05-28T08:15:11.822Z,49.76
2019-05-28T08:17:41.266Z,49.37
2019-05-28T08:20:10.853Z,49.55
2019-05-28T08:22:42.757Z,50.80
2019-05-28T08:25:27.587Z,50.06
2019-05-28T08:27:42.784Z,48.77
2019-05-28T08:30:12.450Z,49.82
2019-05-28T08:32:41.848Z,50.57
2019-05-28T08:35:11.431Z,50.88
2019-05-28T08:37:40.876Z,50.23
2019-05-28T08:40:10.693Z,49.17
2019-05-28T08:42:40.175Z,49.25
2019-05-28T08:45:09.831Z,48.72
2019-05-28T08:47:39.288Z,50.32
2019-05-28T08:50:10.178Z,49.32
2019-05-28T08:52:39.662Z,50.32
2019-05-28T08:55:09.810Z,49.00
2019-05-28T08:57:39.688Z,49.76
2019-05-28T09:00:11.122Z,48.48
2019-05-28T09:02:40.595Z,48.46
2019-05-28T09:05:24.996Z,49.55
2019-05-28T09:07:41.936Z,51.18
2019-05-28T09:10:11.469Z,51.76
2019-05-28T09:12:40.912Z,51.52
2019-05-28T09:15:10.350Z,51.12
2019-05-28T09:17:39.808Z,51.13
2019-05-28T09:20:09.284Z,52.77
2019-05-28T09:22:38.799Z,54.17
2019-05-28T09:25:08.298Z,57.15
2019-05-28T09:27:37.759Z,56.54
2019-05-28T09:30:11.043Z,55.55
2019-05-28T09:32:40.530Z,56.21
2019-05-28T09:35:10.357Z,56.64
2019-05-28T09:37:39.801Z,58.36
2019-05-28T09:40:10.562Z,59.12
2019-05-28T09:42:40.103Z,58.52
2019-05-28T09:45:22.074Z,58.74
2019-05-28T09:47:41.104Z,58.26
2019-05-28T09:50:29.420Z,58.16
2019-05-28T09:52:54.304Z,58.43
2019-05-28T09:55:14.446Z,58.81
2019-05-28T09:57:47.799Z,59.03
2019-05-28T10:00:20.817Z,58.68
2019-05-28T10:02:51.313Z,58.02
2019-05-28T10:05:22.191Z,58.66
2019-05-28T10:07:51.822Z,59.35
2019-05-28T10:10:23.406Z,60.96
2019-05-28T10:12:52.847Z,62.34
2019-05-28T10:15:22.615Z,62.27
2019-05-28T10:17:52.047Z,62.65
2019-05-28T10:20:23.607Z,62.36
2019-05-28T10:22:53.191Z,60.33
2019-05-28T10:25:22.792Z,59.74
2019-05-28T10:28:00.877Z,59.26
2019-05-28T10:30:24.328Z,58.27
2019-05-28T10:32:53.822Z,57.88
2019-05-28T10:35:24.234Z,57.88
2019-05-28T10:37:53.720Z,59.01
2019-05-28T10:40:23.424Z,59.39
2019-05-28T10:42:52.883Z,58.97
2019-05-28T10:45:22.861Z,59.25
2019-05-28T10:47:53.184Z,57.97
2019-05-28T10:50:23.648Z,56.41
2019-05-28T10:52:53.147Z,56.59
2019-05-28T10:55:22.720Z,56.49
2019-05-28T10:57:52.199Z,53.87
2019-05-28T11:00:23.441Z,52.86
2019-05-28T11:02:53.196Z,54.32
2019-05-28T11:05:22.979Z,54.46
2019-05-28T11:07:52.441Z,54.77
2019-05-28T11:10:24.789Z,55.40
2019-05-28T11:12:54.437Z,53.96
2019-05-28T11:15:26.158Z,54.23
2019-05-28T11:17:55.955Z,53.95
2019-05-28T11:20:26.038Z,54.19
2019-05-28T11:22:55.752Z,55.58
2019-05-28T11:25:25.478Z,58.35
2019-05-28T11:27:55.062Z,57.06
2019-05-28T11:30:24.932Z,57.47
2019-05-28T11:32:54.391Z,58.60
2019-05-28T11:35:24.202Z,59.05
2019-05-28T11:37:53.692Z,58.79
2019-05-28T11:40:23.576Z,59.96
2019-05-28T11:42:53.093Z,58.82
2019-05-28T11:45:24.512Z,56.97
2019-05-28T11:47:54.007Z,56.64
2019-05-28T11:50:23.648Z,57.56
2019-05-28T11:52:53.119Z,56.47
2019-05-28T11:55:23.089Z,56.23
2019-05-28T11:57:52.516Z,54.67
2019-05-28T12:00:23.005Z,53.83
2019-05-28T12:02:52.462Z,53.42
2019-05-28T12:05:24.586Z,53.84
2019-05-28T12:07:54.031Z,53.24
2019-05-28T12:10:25.079Z,53.15
2019-05-28T12:12:54.517Z,53.51
2019-05-28T12:15:24.232Z,53.38
2019-05-28T12:17:53.686Z,54.08
2019-05-28T12:20:24.127Z,55.75
2019-05-28T12:23:09.836Z,57.42
2019-05-28T12:25:24.969Z,60.24
2019-05-28T12:27:54.398Z,59.65
2019-05-28T12:30:24.365Z,61.96
2019-05-28T12:32:53.822Z,60.56
2019-05-28T12:35:29.432Z,64.76
2019-05-28T12:37:54.686Z,67.12
2019-05-28T12:40:24.360Z,69.15
2019-05-28T12:42:53.796Z,68.31
2019-05-28T12:45:35.118Z,70.28
2019-05-28T12:48:08.039Z,73.81
2019-05-28T12:50:25.994Z,74.99
2019-05-28T12:52:55.436Z,74.34
2019-05-28T12:55:25.030Z,72.17
2019-05-28T12:57:54.641Z,75.01
2019-05-28T13:00:26.496Z,74.46
2019-05-28T13:02:55.974Z,75.12
2019-05-28T13:05:28.496Z,76.36
2019-05-28T13:08:08.343Z,76.23
2019-05-28T13:10:29.252Z,75.90
2019-05-28T13:12:58.699Z,76.65
2019-05-28T13:15:28.276Z,77.95
2019-05-28T13:17:57.785Z,76.70
2019-05-28T13:20:27.244Z,76.41
2019-05-28T13:22:56.690Z,75.50
2019-05-28T13:25:26.145Z,73.19
2019-05-28T13:27:55.585Z,74.37
2019-05-28T13:30:25.166Z,75.87
2019-05-28T13:32:54.775Z,74.87
2019-05-28T13:35:25.303Z,74.36
2019-05-28T13:37:54.879Z,70.24
2019-05-28T13:40:25.041Z,71.96
2019-05-28T13:42:54.585Z,70.23
2019-05-28T13:45:24.476Z,67.33
2019-05-28T13:47:53.982Z,66.17
2019-05-28T13:50:23.824Z,62.71
2019-05-28T13:52:53.284Z,64.03
2019-05-28T13:55:22.856Z,64.10
2019-05-28T13:57:52.330Z,62.19
2019-05-28T14:00:23.013Z,62.20
2019-05-28T14:02:52.483Z,65.24
2019-05-28T14:05:22.127Z,63.92
2019-05-28T14:07:51.586Z,65.87
2019-05-28T14:10:21.180Z,67.06
2019-05-28T14:12:50.659Z,66.79
2019-05-28T14:15:21.583Z,67.38
2019-05-28T14:17:51.117Z,69.27
2019-05-28T14:20:20.991Z,65.93
2019-05-28T14:22:50.437Z,65.10
2019-05-28T14:25:20.034Z,67.25
2019-05-28T14:27:49.524Z,67.26
2019-05-28T14:30:20.828Z,67.42
2019-05-28T14:32:50.307Z,65.35
2019-05-28T14:35:19.924Z,63.67
2019-05-28T14:37:49.399Z,62.55
2019-05-28T14:40:23.780Z,61.64
2019-05-28T14:42:50.785Z,59.45
2019-05-28T14:45:20.858Z,58.59
2019-05-28T14:47:50.383Z,56.97
2019-05-28T14:50:20.210Z,57.02
2019-05-28T14:52:49.701Z,57.25
2019-05-28T14:55:19.480Z,57.62
2019-05-28T14:57:48.959Z,57.31
2019-05-28T15:00:20.907Z,55.70
2019-05-28T15:02:50.386Z,51.12
2019-05-28T15:05:19.905Z,51.62
2019-05-28T15:07:49.437Z,51.08
2019-05-28T15:10:19.802Z,51.81
2019-05-28T15:12:49.280Z,51.48
2019-05-28T15:15:34.447Z,51.46
2019-05-28T15:17:50.364Z,51.14
2019-05-28T15:20:20.436Z,50.72
2019-05-28T15:22:49.922Z,48.51
2019-05-28T15:25:19.542Z,49.66
2019-05-28T15:27:49.036Z,50.34
2019-05-28T15:30:18.764Z,49.14
2019-05-28T15:32:48.258Z,49.49
2019-05-28T15:35:18.156Z,51.01
2019-05-28T15:37:47.655Z,47.68
2019-05-28T15:40:17.384Z,44.73
2019-05-28T15:42:46.870Z,42.13
2019-05-28T15:45:16.597Z,38.08
2019-05-28T15:47:46.097Z,36.59
2019-05-28T15:50:15.820Z,35.75
2019-05-28T15:52:45.301Z,36.72
2019-05-28T15:55:15.333Z,38.31
2019-05-28T15:57:45.614Z,40.37
2019-05-28T16:00:22.708Z,43.56
2019-05-28T16:02:52.988Z,42.90
2019-05-28T16:05:22.592Z,44.21
2019-05-28T16:07:52.095Z,45.00
2019-05-28T16:10:21.741Z,46.95
2019-05-28T16:12:51.205Z,48.64
2019-05-28T16:15:20.874Z,50.53
2019-05-28T16:17:50.357Z,50.72
2019-05-28T16:20:20.882Z,52.86
2019-05-28T16:22:50.336Z,53.67
2019-05-28T16:25:19.866Z,54.35
2019-05-28T16:27:49.345Z,53.86
2019-05-28T16:30:19.078Z,55.01
2019-05-28T16:32:48.624Z,55.49
2019-05-28T16:35:20.449Z,55.17
2019-05-28T16:37:49.952Z,52.56
2019-05-28T16:40:20.643Z,47.48
2019-05-28T16:42:50.077Z,42.78
2019-05-28T16:45:19.947Z,39.73
2019-05-28T16:47:49.380Z,36.39
2019-05-28T16:50:19.758Z,34.85
2019-05-28T16:52:49.203Z,33.35
2019-05-28T16:55:19.155Z,32.45
2019-05-28T16:57:48.594Z,31.57
2019-05-28T17:00:18.992Z,31.99
2019-05-28T17:02:48.452Z,31.65
2019-05-28T17:05:18.053Z,32.57
2019-05-28T17:07:47.503Z,32.41
2019-05-28T17:10:31.552Z,33.18
2019-05-28T17:12:49.024Z,34.03
2019-05-28T17:15:20.046Z,37.26
2019-05-28T17:17:49.497Z,39.18
2019-05-28T17:20:20.606Z,40.14
2019-05-28T17:22:50.047Z,42.49
2019-05-28T17:25:19.566Z,44.39
2019-05-28T17:27:49.015Z,46.29
2019-05-28T17:30:23.603Z,47.71
2019-05-28T17:32:50.035Z,48.18
2019-05-28T17:35:19.549Z,50.04
2019-05-28T17:37:48.993Z,50.37
2019-05-28T17:40:21.892Z,51.98
2019-05-28T17:42:49.898Z,52.69
2019-05-28T17:45:19.530Z,53.72
2019-05-28T17:47:48.970Z,54.31
2019-05-28T17:50:18.835Z,54.45
2019-05-28T17:52:51.438Z,54.64
2019-05-28T17:55:19.502Z,54.46
2019-05-28T17:57:48.967Z,56.04
2019-05-28T18:00:18.467Z,56.13
2019-05-28T18:02:48.740Z,56.42
2019-05-28T18:05:18.481Z,57.28
2019-05-28T18:07:48.214Z,57.35
2019-05-28T18:10:18.141Z,58.35
2019-05-28T18:12:47.596Z,59.19
2019-05-28T18:15:17.477Z,58.54
2019-05-28T18:17:46.910Z,59.64
2019-05-28T18:20:17.107Z,60.10
2019-05-28T18:22:46.544Z,60.39
2019-05-28T18:25:15.988Z,61.50
2019-05-28T18:27:45.440Z,61.32
2019-05-28T18:30:16.431Z,61.55
2019-05-28T18:32:46.133Z,61.51
2019-05-28T18:35:15.811Z,62.64
2019-05-28T18:37:45.340Z,62.01
2019-05-28T18:40:15.229Z,62.42
2019-05-28T18:42:44.682Z,62.64
2019-05-28T18:45:14.270Z,63.05
2019-05-28T18:47:43.729Z,63.55
2019-05-28T18:50:13.400Z,64.63
2019-05-28T18:52:42.832Z,65.32
2019-05-28T18:55:12.700Z,66.29
2019-05-28T18:57:42.136Z,66.77
2019-05-28T19:00:12.414Z,67.69
2019-05-28T19:02:41.851Z,67.92
2019-05-28T19:05:12.859Z,68.92
2019-05-28T19:07:42.307Z,70.06
2019-05-28T19:10:12.480Z,69.96
2019-05-28T19:12:41.940Z,69.57
2019-05-28T19:15:11.610Z,69.76
2019-05-28T19:17:41.060Z,70.38
2019-05-28T19:20:11.210Z,70.86
2019-05-28T19:22:40.659Z,70.48
2019-05-28T19:25:11.851Z,70.58
2019-05-28T19:27:41.305Z,70.89
2019-05-28T19:30:11.949Z,70.68
2019-05-28T19:32:41.382Z,70.29
2019-05-28T19:35:11.444Z,70.36
2019-05-28T19:37:41.200Z,70.14
2019-05-28T19:40:11.650Z,70.13
2019-05-28T19:42:41.094Z,69.69
2019-05-28T19:45:10.779Z,69.64
2019-05-28T19:47:40.215Z,69.48
2019-05-28T19:50:09.829Z,69.94
2019-05-28T19:52:39.531Z,69.76
2019-05-28T19:55:09.339Z,69.58
2019-05-28T19:57:38.845Z,69.72
2019-05-28T20:00:08.959Z,69.73
2019-05-28T20:02:38.380Z,69.73
2019-05-28T20:05:09.442Z,70.01
2019-05-28T20:07:38.878Z,70.04
2019-05-28T20:10:08.518Z,70.54
2019-05-28T20:12:37.981Z,70.33
2019-05-28T20:15:12.400Z,70.51
2019-05-28T20:17:41.891Z,70.47
2019-05-28T20:20:12.627Z,71.01
2019-05-28T20:22:42.087Z,71.12
2019-05-28T20:25:12.797Z,70.51
2019-05-28T20:27:42.251Z,70.27
2019-05-28T20:30:12.592Z,70.27
2019-05-28T20:32:42.044Z,70.14
2019-05-28T20:35:11.783Z,70.51
2019-05-28T20:37:41.191Z,70.91
2019-05-28T20:40:10.763Z,71.23
2019-05-28T20:42:40.601Z,70.86
2019-05-28T20:45:12.051Z,70.79
2019-05-28T20:47:41.690Z,70.56
2019-05-28T20:50:11.946Z,70.89
2019-05-28T20:52:41.440Z,70.41
2019-05-28T20:55:12.174Z,71.18
2019-05-28T20:57:41.581Z,70.87
2019-05-28T21:00:11.741Z,70.79
2019-05-28T21:02:41.180Z,71.58
2019-05-28T21:05:10.847Z,71.51
2019-05-28T21:07:40.340Z,72.10
2019-05-28T21:10:11.353Z,72.43
2019-05-28T21:12:44.508Z,72.82
2019-05-28T21:15:15.726Z,72.54
2019-05-28T21:17:43.683Z,72.56
2019-05-28T21:20:14.317Z,72.78
2019-05-28T21:22:43.759Z,73.27
2019-05-28T21:25:15.047Z,73.43
2019-05-28T21:27:44.488Z,73.21
2019-05-28T21:30:15.849Z,73.63
2019-05-28T21:32:45.290Z,73.73
2019-05-28T21:35:14.975Z,73.49
2019-05-28T21:37:44.506Z,73.43
2019-05-28T21:40:14.351Z,73.20
2019-05-28T21:42:58.648Z,74.08
2019-05-28T21:45:16.442Z,74.08
2019-05-28T21:47:45.891Z,74.48
2019-05-28T21:50:15.872Z,75.26
2019-05-28T21:52:45.332Z,74.95
2019-05-28T21:55:15.133Z,74.86
2019-05-28T21:57:44.590Z,74.94
2019-05-28T22:00:34.931Z,75.20
2019-05-28T22:03:05.098Z,74.74
2019-05-28T22:05:34.573Z,75.49
2019-05-28T22:08:04.885Z,74.95
2019-05-28T22:10:34.435Z,74.97
2019-05-28T22:13:18.410Z,74.79
2019-05-28T22:15:35.110Z,75.63
2019-05-28T22:18:04.628Z,76.15
2019-05-28T22:20:34.078Z,76.36
2019-05-28T22:23:04.580Z,77.36
2019-05-28T22:25:34.056Z,76.54
2019-05-28T22:28:03.491Z,76.65
2019-05-28T22:30:32.927Z,76.71
2019-05-28T22:33:02.394Z,76.23
2019-05-28T22:35:31.874Z,75.81
2019-05-28T22:38:01.311Z,75.88
2019-05-28T22:40:30.814Z,75.87
2019-05-28T22:43:00.611Z,75.64
2019-05-28T22:45:30.090Z,75.56
2019-05-28T22:47:59.539Z,75.76
2019-05-28T22:50:29.056Z,75.78
2019-05-28T22:52:59.593Z,75.67
2019-05-28T22:55:29.235Z,75.27
2019-05-28T22:57:58.678Z,75.36
2019-05-28T23:00:28.134Z,75.25
2019-05-28T23:02:58.734Z,74.97
2019-05-28T23:05:28.200Z,74.63
2019-05-28T23:07:57.900Z,74.46
2019-05-28T23:10:27.332Z,74.33
2019-05-28T23:12:56.787Z,74.23
2019-05-28T23:15:26.613Z,74.91
2019-05-28T23:17:56.071Z,74.83
2019-05-28T23:20:25.519Z,73.39
2019-05-28T23:22:54.963Z,73.49
2019-05-28T23:25:24.397Z,73.71
2019-05-28T23:27:53.840Z,73.47
2019-05-28T23:30:25.593Z,72.83
2019-05-28T23:32:55.309Z,72.00
2019-05-28T23:35:24.750Z,71.84
2019-05-28T23:37:54.191Z,71.87
2019-05-28T23:40:23.781Z,72.38
2019-05-28T23:42:53.225Z,71.97
2019-05-28T23:45:22.691Z,72.06
2019-05-28T23:47:52.129Z,71.96
2019-05-28T23:50:21.654Z,72.30
2019-05-28T23:52:51.087Z,72.81
2019-05-28T23:55:20.590Z,73.10
2019-05-28T23:57:50.046Z,73.00
